createdAt,value
2019-02-21T00:01:57.865Z,39.27
2019-02-21T00:04:27.540Z,39.77
2019-02-21T00:06:57.306Z,39.33
2019-02-21T00:09:26.991Z,39.70
2019-02-21T00:11:56.674Z,39.77
2019-02-21T00:14:26.622Z,38.90
2019-02-21T00:16:56.320Z,39.63
2019-02-21T00:19:28.247Z,40.17
2019-02-21T00:21:59.508Z,40.43
2019-02-21T00:24:29.184Z,39.73
2019-02-21T00:27:00.198Z,39.40
2019-02-21T00:29:29.976Z,38.80
2019-02-21T00:31:59.950Z,39.73
2019-02-21T00:34:29.718Z,40.13
2019-02-21T00:36:59.415Z,40.67
2019-02-21T00:39:29.175Z,39.73
2019-02-21T00:41:58.934Z,39.97
2019-02-21T00:44:31.612Z,39.67
2019-02-21T00:47:01.330Z,40.20
2019-02-21T00:49:31.007Z,39.47
2019-02-21T00:52:02.843Z,39.50
2019-02-21T00:54:33.240Z,40.17
2019-02-21T00:57:04.915Z,40.10
2019-02-21T00:59:36.252Z,40.23
2019-02-21T01:02:09.127Z,40.10
2019-02-21T01:04:38.816Z,40.07
2019-02-21T01:07:08.502Z,40.60
2019-02-21T01:09:38.158Z,39.57
2019-02-21T01:12:07.822Z,40.10
2019-02-21T01:14:37.666Z,39.40
2019-02-21T01:17:07.345Z,40.20
2019-02-21T01:19:37.043Z,39.67
2019-02-21T01:22:06.999Z,39.97
2019-02-21T01:24:36.509Z,40.40
2019-02-21T01:27:06.210Z,39.53
2019-02-21T01:29:36.000Z,40.30
2019-02-21T01:32:06.036Z,39.43
2019-02-21T01:34:35.718Z,39.70
2019-02-21T01:37:05.493Z,40.13
2019-02-21T01:39:35.249Z,40.10
2019-02-21T01:42:04.916Z,40.07
2019-02-21T01:44:35.410Z,39.90
2019-02-21T01:47:05.094Z,39.60
2019-02-21T01:49:54.071Z,39.00
2019-02-21T01:52:23.746Z,40.23
2019-02-21T01:54:53.510Z,39.10
2019-02-21T01:57:25.058Z,39.20
2019-02-21T01:59:54.736Z,39.30
2019-02-21T02:02:25.351Z,39.63
2019-02-21T02:04:57.866Z,39.63
2019-02-21T02:07:30.282Z,38.80
2019-02-21T02:09:59.965Z,39.10
2019-02-21T02:12:30.729Z,39.53
2019-02-21T02:15:00.570Z,39.27
2019-02-21T02:17:31.136Z,39.40
2019-02-21T02:20:04.508Z,40.00
2019-02-21T02:22:34.178Z,40.03
2019-02-21T02:25:23.128Z,39.07
2019-02-21T02:27:52.902Z,39.07
2019-02-21T02:30:22.626Z,39.67
2019-02-21T02:32:58.058Z,39.93
2019-02-21T02:35:27.725Z,40.17
2019-02-21T02:37:59.735Z,38.83
2019-02-21T02:40:29.519Z,39.57
2019-02-21T02:42:59.272Z,38.90
2019-02-21T02:45:29.011Z,40.30
2019-02-21T02:47:58.692Z,39.43
2019-02-21T02:50:28.374Z,39.13
2019-02-21T02:52:58.048Z,38.60
2019-02-21T02:55:27.764Z,39.50
2019-02-21T02:57:58.555Z,38.90
2019-02-21T03:00:28.320Z,39.27
2019-02-21T03:02:58.112Z,39.67
2019-02-21T03:05:27.798Z,39.00
2019-02-21T03:07:57.474Z,39.33
2019-02-21T03:10:28.607Z,39.30
2019-02-21T03:12:58.355Z,39.43
2019-02-21T03:15:28.036Z,39.20
2019-02-21T03:17:58.129Z,39.07
2019-02-21T03:20:27.969Z,39.37
2019-02-21T03:22:57.630Z,39.20
2019-02-21T03:25:27.321Z,39.43
2019-02-21T03:27:57.107Z,39.37
2019-02-21T03:30:28.217Z,40.07
2019-02-21T03:32:57.913Z,39.07
2019-02-21T03:35:27.588Z,39.30
2019-02-21T03:37:57.270Z,39.43
2019-02-21T03:40:26.998Z,39.57
2019-02-21T03:42:56.642Z,38.97
2019-02-21T03:45:26.416Z,39.93
2019-02-21T03:47:56.093Z,39.80
2019-02-21T03:50:25.780Z,38.90
2019-02-21T03:52:55.480Z,39.50
2019-02-21T03:55:25.265Z,39.23
2019-02-21T03:57:54.955Z,39.73
2019-02-21T04:00:26.019Z,39.17
2019-02-21T04:02:57.167Z,39.57
2019-02-21T04:05:26.859Z,39.23
2019-02-21T04:07:56.558Z,39.23
2019-02-21T04:10:26.231Z,39.27
2019-02-21T04:12:56.167Z,39.53
2019-02-21T04:15:25.928Z,38.83
2019-02-21T04:17:55.887Z,39.10
2019-02-21T04:20:25.570Z,38.70
2019-02-21T04:22:55.237Z,39.27
2019-02-21T04:25:26.721Z,39.13
2019-02-21T04:27:56.387Z,39.70
2019-02-21T04:30:26.048Z,38.90
2019-02-21T04:32:55.744Z,39.07
2019-02-21T04:35:25.416Z,39.23
2019-02-21T04:37:55.281Z,38.90
2019-02-21T04:40:24.969Z,39.47
2019-02-21T04:42:56.128Z,39.27
2019-02-21T04:45:25.810Z,39.73
2019-02-21T04:47:55.632Z,39.20
2019-02-21T04:50:25.305Z,39.50
2019-02-21T04:52:54.985Z,39.17
2019-02-21T04:55:24.694Z,39.00
2019-02-21T04:57:57.338Z,39.33
2019-02-21T05:00:27.016Z,38.97
2019-02-21T05:02:56.714Z,38.83
2019-02-21T05:05:26.414Z,39.10
2019-02-21T05:07:56.105Z,39.43
2019-02-21T05:10:25.804Z,39.17
2019-02-21T05:12:57.924Z,39.23
2019-02-21T05:15:27.609Z,38.97
2019-02-21T05:17:58.957Z,39.03
2019-02-21T05:20:28.636Z,38.87
2019-02-21T05:22:58.302Z,38.73
2019-02-21T05:25:29.461Z,39.00
2019-02-21T05:28:00.771Z,39.47
2019-02-21T05:30:30.843Z,39.37
2019-02-21T05:33:11.024Z,38.93
2019-02-21T05:35:42.334Z,39.30
2019-02-21T05:38:27.467Z,39.40
2019-02-21T05:41:06.883Z,38.37
2019-02-21T05:43:38.355Z,38.80
2019-02-21T05:46:12.500Z,38.27
2019-02-21T05:48:46.579Z,39.63
2019-02-21T05:51:20.867Z,39.33
2019-02-21T05:53:53.674Z,39.57
2019-02-21T05:56:26.367Z,38.90
2019-02-21T05:58:57.682Z,39.07
2019-02-21T06:01:29.011Z,39.40
2019-02-21T06:04:19.325Z,39.80
2019-02-21T06:07:05.434Z,38.97
2019-02-21T06:09:36.758Z,39.33
2019-02-21T06:12:10.782Z,38.63
2019-02-21T06:14:42.109Z,39.57
2019-02-21T06:17:13.879Z,39.40
2019-02-21T06:19:55.855Z,39.13
2019-02-21T06:22:44.593Z,39.53
2019-02-21T06:25:16.648Z,39.33
2019-02-21T06:27:50.637Z,38.63
2019-02-21T06:30:28.917Z,39.77
2019-02-21T06:33:04.963Z,39.43
2019-02-21T06:35:32.660Z,39.80
2019-02-21T06:38:02.364Z,40.33
2019-02-21T06:40:32.120Z,39.57
2019-02-21T06:43:02.037Z,39.57
2019-02-21T06:45:31.742Z,39.40
2019-02-21T06:48:01.440Z,39.13
2019-02-21T06:50:31.109Z,38.90
2019-02-21T06:53:00.906Z,39.40
2019-02-21T06:55:31.556Z,39.47
2019-02-21T06:58:01.933Z,39.60
2019-02-21T07:00:31.671Z,39.10
2019-02-21T07:03:01.419Z,39.43
2019-02-21T07:05:31.087Z,39.73
2019-02-21T07:08:00.797Z,39.57
2019-02-21T07:10:30.458Z,39.00
2019-02-21T07:13:00.141Z,39.03
2019-02-21T07:15:31.420Z,39.37
2019-02-21T07:18:01.371Z,39.97
2019-02-21T07:20:31.034Z,40.00
2019-02-21T07:23:00.734Z,39.77
2019-02-21T07:25:34.463Z,39.33
2019-02-21T07:28:11.737Z,39.60
2019-02-21T07:30:35.851Z,39.17
2019-02-21T07:33:07.782Z,39.70
2019-02-21T07:35:37.467Z,39.37
2019-02-21T07:38:08.311Z,40.13
2019-02-21T07:40:37.964Z,39.97
2019-02-21T07:43:07.649Z,39.93
2019-02-21T07:45:37.351Z,39.50
2019-02-21T07:48:07.042Z,39.90
2019-02-21T07:50:36.616Z,39.60
2019-02-21T07:53:06.397Z,40.00
2019-02-21T07:55:36.149Z,39.63
2019-02-21T07:58:05.829Z,40.03
2019-02-21T08:00:35.521Z,39.23
2019-02-21T08:03:05.205Z,40.00
2019-02-21T08:05:34.954Z,39.93
2019-02-21T08:08:04.662Z,40.20
2019-02-21T08:10:35.520Z,39.90
2019-02-21T08:13:05.199Z,39.47
2019-02-21T08:15:34.920Z,40.23
2019-02-21T08:18:05.650Z,39.97
2019-02-21T08:20:40.877Z,39.60
2019-02-21T08:23:11.100Z,39.43
2019-02-21T08:25:41.069Z,40.20
2019-02-21T08:28:11.087Z,40.03
2019-02-21T08:30:40.787Z,39.30
2019-02-21T08:33:12.148Z,39.97
2019-02-21T08:35:41.858Z,40.67
2019-02-21T08:38:12.239Z,40.37
2019-02-21T08:40:42.119Z,40.47
2019-02-21T08:43:11.781Z,40.47
2019-02-21T08:45:42.778Z,41.00
2019-02-21T08:48:13.476Z,40.67
2019-02-21T08:50:43.309Z,39.40
2019-02-21T08:53:13.183Z,40.40
2019-02-21T08:55:42.862Z,39.57
2019-02-21T08:58:12.541Z,39.97
2019-02-21T09:00:43.193Z,40.00
2019-02-21T09:03:12.847Z,40.07
2019-02-21T09:05:42.524Z,39.90
2019-02-21T09:08:16.736Z,39.60
2019-02-21T09:10:49.330Z,40.03
2019-02-21T09:13:19.009Z,40.50
2019-02-21T09:15:48.749Z,40.90
2019-02-21T09:18:20.818Z,40.57
2019-02-21T09:20:50.479Z,40.97
2019-02-21T09:23:20.193Z,39.80
2019-02-21T09:25:49.889Z,41.03
2019-02-21T09:28:19.567Z,40.90
2019-02-21T09:30:49.335Z,40.47
2019-02-21T09:33:21.356Z,40.93
2019-02-21T09:35:51.815Z,40.87
2019-02-21T09:38:21.521Z,41.40
2019-02-21T09:40:51.202Z,39.97
2019-02-21T09:43:20.889Z,40.50
2019-02-21T09:45:53.372Z,40.73
2019-02-21T09:48:23.034Z,40.67
2019-02-21T09:50:54.344Z,40.77
2019-02-21T09:53:24.039Z,40.50
2019-02-21T09:55:53.867Z,40.53
2019-02-21T09:58:23.555Z,40.70
2019-02-21T10:00:53.264Z,40.67
2019-02-21T10:03:24.957Z,41.37
2019-02-21T10:05:54.632Z,39.97
2019-02-21T10:08:26.630Z,40.10
2019-02-21T10:10:56.307Z,40.23
2019-02-21T10:13:26.082Z,41.27
2019-02-21T10:15:56.299Z,40.97
2019-02-21T10:18:25.972Z,40.97
2019-02-21T10:20:55.685Z,40.83
2019-02-21T10:23:25.399Z,40.67
2019-02-21T10:25:55.087Z,41.10
2019-02-21T10:28:25.031Z,41.10
2019-02-21T10:30:54.731Z,41.33
2019-02-21T10:33:25.365Z,41.47
2019-02-21T10:35:55.128Z,40.83
2019-02-21T10:38:24.897Z,41.10
2019-02-21T10:40:54.584Z,41.30
2019-02-21T10:43:24.261Z,41.27
2019-02-21T10:45:53.945Z,40.70
2019-02-21T10:48:23.700Z,41.40
2019-02-21T10:50:53.391Z,40.40
2019-02-21T10:53:23.088Z,41.07
2019-02-21T10:55:52.848Z,41.23
2019-02-21T10:58:22.505Z,41.07
2019-02-21T11:00:52.433Z,41.03
2019-02-21T11:03:22.120Z,40.90
2019-02-21T11:05:51.794Z,41.40
2019-02-21T11:08:21.515Z,40.33
2019-02-21T11:10:52.690Z,40.97
2019-02-21T11:13:22.429Z,40.67
2019-02-21T11:15:53.695Z,41.23
2019-02-21T11:18:23.436Z,41.90
2019-02-21T11:20:53.185Z,41.43
2019-02-21T11:23:22.880Z,40.67
2019-02-21T11:25:52.620Z,41.53
2019-02-21T11:28:22.380Z,41.07
2019-02-21T11:30:52.207Z,40.53
2019-02-21T11:33:21.943Z,40.97
2019-02-21T11:35:51.758Z,41.17
2019-02-21T11:38:21.481Z,41.67
2019-02-21T11:40:51.163Z,42.03
2019-02-21T11:43:40.133Z,42.03
2019-02-21T11:46:09.824Z,42.63
2019-02-21T11:48:40.954Z,43.93
2019-02-21T11:51:10.733Z,45.40
2019-02-21T11:53:40.395Z,43.13
2019-02-21T11:56:10.081Z,41.60
2019-02-21T11:58:39.776Z,41.37
2019-02-21T12:01:12.298Z,41.70
2019-02-21T12:04:01.368Z,42.20
2019-02-21T12:06:31.109Z,41.40
2019-02-21T12:09:00.753Z,41.30
2019-02-21T12:11:30.539Z,41.20
2019-02-21T12:14:00.230Z,41.43
2019-02-21T12:16:31.598Z,41.13
2019-02-21T12:19:02.949Z,41.33
2019-02-21T12:21:32.643Z,41.27
2019-02-21T12:24:02.310Z,41.27
2019-02-21T12:26:32.074Z,41.70
2019-02-21T12:29:01.837Z,41.37
2019-02-21T12:31:31.517Z,41.50
2019-02-21T12:34:01.222Z,41.10
2019-02-21T12:36:30.923Z,41.03
2019-02-21T12:39:00.727Z,41.60
2019-02-21T12:41:30.416Z,41.60
2019-02-21T12:44:00.164Z,41.87
2019-02-21T12:46:31.905Z,41.63
2019-02-21T12:49:01.627Z,41.20
2019-02-21T12:51:31.357Z,41.30
2019-02-21T12:54:01.109Z,41.60
2019-02-21T12:56:30.809Z,41.57
2019-02-21T12:59:20.805Z,41.60
2019-02-21T13:01:50.589Z,42.00
2019-02-21T13:04:20.320Z,41.50
2019-02-21T13:06:50.057Z,41.33
2019-02-21T13:09:19.750Z,41.83
2019-02-21T13:11:49.435Z,41.83
2019-02-21T13:14:19.103Z,42.47
2019-02-21T13:16:48.851Z,41.20
2019-02-21T13:19:18.530Z,41.50
2019-02-21T13:21:48.196Z,41.27
2019-02-21T13:24:18.984Z,41.73
2019-02-21T13:26:48.656Z,41.53
2019-02-21T13:29:18.418Z,41.30
2019-02-21T13:31:48.184Z,41.53
2019-02-21T13:34:17.858Z,41.80
2019-02-21T13:36:47.665Z,42.07
2019-02-21T13:39:17.381Z,41.80
2019-02-21T13:41:47.056Z,41.17
2019-02-21T13:44:16.591Z,41.83
2019-02-21T13:46:46.304Z,41.60
2019-02-21T13:49:29.392Z,41.80
2019-02-21T13:51:59.092Z,42.23
2019-02-21T13:54:28.777Z,41.90
2019-02-21T13:56:58.532Z,41.53
2019-02-21T13:59:28.238Z,41.57
2019-02-21T14:02:00.005Z,42.00
2019-02-21T14:04:29.678Z,41.73
2019-02-21T14:06:59.379Z,42.90
2019-02-21T14:09:29.059Z,41.67
2019-02-21T14:12:01.289Z,42.40
2019-02-21T14:14:31.058Z,42.57
2019-02-21T14:17:02.209Z,40.93
2019-02-21T14:19:31.894Z,42.23
2019-02-21T14:22:01.575Z,41.67
2019-02-21T14:24:36.959Z,42.43
2019-02-21T14:27:02.726Z,41.53
2019-02-21T14:29:39.229Z,42.07
2019-02-21T14:32:04.824Z,41.77
2019-02-21T14:34:34.595Z,41.33
2019-02-21T14:37:07.352Z,41.93
2019-02-21T14:39:39.996Z,41.57
2019-02-21T14:42:09.669Z,42.67
2019-02-21T14:44:39.450Z,45.00
2019-02-21T14:47:10.420Z,45.73
2019-02-21T14:49:40.115Z,42.70
2019-02-21T14:52:09.945Z,42.20
2019-02-21T14:54:39.684Z,44.50
2019-02-21T14:57:09.378Z,44.07
2019-02-21T14:59:39.070Z,43.87
2019-02-21T15:02:10.017Z,43.20
2019-02-21T15:04:39.679Z,44.33
2019-02-21T15:07:09.448Z,44.03
2019-02-21T15:09:39.199Z,42.73
2019-02-21T15:12:11.609Z,42.57
2019-02-21T15:14:40.302Z,42.10
2019-02-21T15:17:10.045Z,41.60
2019-02-21T15:19:41.012Z,42.13
2019-02-21T15:22:13.708Z,42.30
2019-02-21T15:24:45.571Z,42.40
2019-02-21T15:27:15.218Z,42.50
2019-02-21T15:29:44.925Z,42.43
2019-02-21T15:32:14.602Z,42.80
2019-02-21T15:34:47.065Z,42.67
2019-02-21T15:37:15.722Z,42.60
2019-02-21T15:39:45.765Z,42.37
2019-02-21T15:42:15.432Z,43.13
2019-02-21T15:44:45.127Z,42.70
2019-02-21T15:47:14.801Z,43.33
2019-02-21T15:49:44.460Z,42.93
2019-02-21T15:52:21.791Z,44.30
2019-02-21T15:54:46.549Z,43.27
2019-02-21T15:57:16.239Z,43.03
2019-02-21T15:59:46.206Z,43.30
2019-02-21T16:02:15.897Z,43.53
2019-02-21T16:04:54.666Z,43.70
2019-02-21T16:07:24.669Z,43.60
2019-02-21T16:09:54.450Z,44.77
2019-02-21T16:12:24.543Z,44.20
2019-02-21T16:14:54.441Z,43.63
2019-02-21T16:17:24.193Z,43.47
2019-02-21T16:19:53.891Z,43.53
2019-02-21T16:22:23.548Z,44.60
2019-02-21T16:24:53.242Z,44.13
2019-02-21T16:27:22.944Z,43.77
2019-02-21T16:29:52.826Z,44.17
2019-02-21T16:32:22.799Z,44.17
2019-02-21T16:34:52.508Z,44.27
2019-02-21T16:37:22.211Z,43.87
2019-02-21T16:39:51.900Z,43.20
2019-02-21T16:42:21.687Z,43.30
2019-02-21T16:44:52.282Z,44.37
2019-02-21T16:47:21.966Z,44.43
2019-02-21T16:49:51.655Z,43.53
2019-02-21T16:52:22.798Z,44.60
2019-02-21T16:54:53.982Z,45.20
2019-02-21T16:57:23.780Z,44.37
2019-02-21T16:59:53.583Z,44.27
2019-02-21T17:02:23.293Z,43.93
2019-02-21T17:04:55.788Z,44.10
2019-02-21T17:07:25.667Z,44.30
2019-02-21T17:09:55.505Z,43.70
2019-02-21T17:12:25.204Z,45.03
2019-02-21T17:14:54.881Z,43.93
2019-02-21T17:17:25.775Z,44.27
2019-02-21T17:19:56.657Z,43.80
2019-02-21T17:22:26.351Z,43.63
2019-02-21T17:24:56.237Z,43.43
2019-02-21T17:27:25.914Z,43.13
2019-02-21T17:29:59.253Z,43.60
2019-02-21T17:32:29.557Z,43.57
2019-02-21T17:34:59.239Z,42.80
2019-02-21T17:37:28.921Z,43.43
2019-02-21T17:39:58.607Z,42.77
2019-02-21T17:42:28.385Z,42.83
2019-02-21T17:44:58.155Z,42.53
2019-02-21T17:47:29.932Z,43.27
2019-02-21T17:49:59.603Z,42.97
2019-02-21T17:52:29.285Z,43.20
2019-02-21T17:55:01.932Z,44.70
2019-02-21T17:57:31.594Z,43.20
2019-02-21T18:00:01.284Z,43.13
2019-02-21T18:02:31.303Z,43.30
2019-02-21T18:05:01.022Z,42.80
2019-02-21T18:07:36.437Z,43.67
2019-02-21T18:10:06.378Z,44.40
2019-02-21T18:12:42.078Z,43.20
2019-02-21T18:15:19.793Z,42.87
2019-02-21T18:17:49.462Z,42.83
2019-02-21T18:20:20.052Z,44.20
2019-02-21T18:22:49.743Z,42.63
2019-02-21T18:25:36.081Z,42.77
2019-02-21T18:28:05.781Z,44.73
2019-02-21T18:30:35.800Z,46.37
2019-02-21T18:33:07.351Z,44.40
2019-02-21T18:35:37.071Z,43.87
2019-02-21T18:38:06.758Z,43.70
2019-02-21T18:40:36.459Z,44.30
2019-02-21T18:43:09.229Z,45.20
2019-02-21T18:45:38.904Z,45.93
2019-02-21T18:48:11.457Z,47.83
2019-02-21T18:50:41.476Z,47.77
2019-02-21T18:53:11.121Z,47.93
2019-02-21T18:55:40.812Z,45.60
2019-02-21T18:58:10.554Z,44.73
2019-02-21T19:00:40.663Z,45.53
2019-02-21T19:03:12.198Z,44.47
2019-02-21T19:05:41.870Z,44.90
2019-02-21T19:08:11.618Z,44.70
2019-02-21T19:10:41.317Z,43.93
2019-02-21T19:13:11.003Z,43.67
2019-02-21T19:15:41.054Z,43.90
2019-02-21T19:18:10.750Z,44.20
2019-02-21T19:20:40.427Z,44.43
2019-02-21T19:23:10.088Z,43.33
2019-02-21T19:25:41.068Z,44.33
2019-02-21T19:28:10.735Z,44.33
2019-02-21T19:31:03.896Z,45.10
2019-02-21T19:33:33.577Z,43.77
2019-02-21T19:36:03.260Z,44.07
2019-02-21T19:38:32.954Z,44.70
2019-02-21T19:41:02.711Z,44.20
2019-02-21T19:43:32.368Z,43.27
2019-02-21T19:46:02.087Z,44.00
2019-02-21T19:48:31.764Z,43.53
2019-02-21T19:51:03.207Z,44.40
2019-02-21T19:53:32.912Z,44.50
2019-02-21T19:56:02.573Z,44.63
2019-02-21T19:58:32.237Z,44.03
2019-02-21T20:01:01.951Z,43.80
2019-02-21T20:03:35.666Z,44.73
2019-02-21T20:06:05.349Z,44.70
2019-02-21T20:08:35.102Z,43.93
2019-02-21T20:11:05.676Z,43.13
2019-02-21T20:13:35.431Z,43.73
2019-02-21T20:16:05.413Z,43.67
2019-02-21T20:18:35.156Z,43.60
2019-02-21T20:21:04.822Z,43.77
2019-02-21T20:23:34.546Z,44.00
2019-02-21T20:26:04.261Z,44.13
2019-02-21T20:28:33.936Z,44.27
2019-02-21T20:31:03.871Z,43.07
2019-02-21T20:33:35.405Z,42.63
2019-02-21T20:36:05.309Z,43.97
2019-02-21T20:38:35.018Z,44.23
2019-02-21T20:41:04.770Z,47.03
2019-02-21T20:43:34.454Z,45.97
2019-02-21T20:46:04.704Z,46.93
2019-02-21T20:48:35.498Z,45.53
2019-02-21T20:51:05.476Z,44.97
2019-02-21T20:53:36.574Z,44.23
2019-02-21T20:56:06.700Z,44.37
2019-02-21T20:58:36.388Z,44.73
2019-02-21T21:01:07.855Z,43.00
2019-02-21T21:03:37.540Z,46.23
2019-02-21T21:06:07.222Z,42.80
2019-02-21T21:08:43.336Z,43.37
2019-02-21T21:11:08.329Z,43.70
2019-02-21T21:13:38.973Z,43.03
2019-02-21T21:16:08.737Z,42.50
2019-02-21T21:18:38.464Z,41.53
2019-02-21T21:21:08.139Z,43.80
2019-02-21T21:23:37.856Z,42.93
2019-02-21T21:26:07.515Z,43.13
2019-02-21T21:28:38.664Z,43.07
2019-02-21T21:31:08.465Z,42.13
2019-02-21T21:33:38.124Z,42.87
2019-02-21T21:36:07.905Z,42.90
2019-02-21T21:38:37.605Z,42.47
2019-02-21T21:41:07.289Z,43.47
2019-02-21T21:43:38.365Z,42.70
2019-02-21T21:46:08.055Z,43.33
2019-02-21T21:48:37.739Z,42.87
2019-02-21T21:51:08.580Z,43.50
2019-02-21T21:53:38.352Z,43.17
2019-02-21T21:56:08.045Z,42.57
2019-02-21T21:58:37.709Z,43.03
2019-02-21T22:01:07.481Z,42.57
2019-02-21T22:03:37.459Z,43.03
2019-02-21T22:06:07.191Z,43.33
2019-02-21T22:08:36.881Z,43.03
2019-02-21T22:11:07.329Z,42.87
2019-02-21T22:13:37.011Z,44.07
2019-02-21T22:16:06.704Z,42.70
2019-02-21T22:18:36.376Z,43.23
2019-02-21T22:21:06.109Z,43.37
2019-02-21T22:23:35.802Z,43.07
2019-02-21T22:26:05.582Z,43.03
2019-02-21T22:28:35.245Z,43.43
2019-02-21T22:31:06.176Z,43.17
2019-02-21T22:33:36.416Z,43.20
2019-02-21T22:36:09.574Z,43.83
2019-02-21T22:38:39.311Z,43.70
2019-02-21T22:41:08.973Z,43.40
2019-02-21T22:43:38.658Z,43.97
2019-02-21T22:46:08.357Z,43.30
2019-02-21T22:48:47.026Z,44.20
2019-02-21T22:51:09.440Z,44.27
2019-02-21T22:53:39.140Z,44.33
2019-02-21T22:56:08.815Z,43.93
2019-02-21T22:58:44.998Z,43.13
2019-02-21T23:01:26.816Z,43.67
2019-02-21T23:04:03.259Z,43.13
2019-02-21T23:06:37.354Z,43.03
2019-02-21T23:09:12.637Z,43.17
2019-02-21T23:11:44.353Z,43.90
2019-02-21T23:14:14.039Z,43.90
2019-02-21T23:16:43.967Z,43.60
2019-02-21T23:19:16.229Z,43.67
2019-02-21T23:21:46.260Z,43.57
2019-02-21T23:24:15.924Z,44.30
2019-02-21T23:26:46.964Z,44.07
2019-02-21T23:29:16.638Z,43.07
2019-02-21T23:31:46.393Z,44.07
2019-02-21T23:34:17.714Z,43.70
2019-02-21T23:36:47.610Z,43.73
2019-02-21T23:39:17.352Z,43.33
2019-02-21T23:41:52.629Z,43.93
2019-02-21T23:44:23.777Z,43.97
2019-02-21T23:46:54.319Z,44.30
2019-02-21T23:49:25.167Z,44.93
2019-02-21T23:51:54.836Z,44.13
2019-02-21T23:54:25.770Z,45.13
2019-02-21T23:56:56.793Z,43.87
2019-02-21T23:59:26.462Z,44.10
